Campanya meteocatpedra

Dades EMA Os de Balaguer - el Monestir d'Avellanes

?
?
Resum diari
Dades diàries de l'estació meteorològica
Temperatura mitjana 1.7 °C
Temperatura màxima 5.0 °C 16:16 TU
Temperatura mínima 0.0 °C 7:13 TU
Humitat relativa mitjana 94%
Precipitació acumulada 36.1 mm
Ratxa màxima del vent (6 m) 22.3 km/h - 332º 0:33 TU
Irradiació solar global 2.1 MJ/m2

El tram horari està expressat en Temps Universal (TU). Cal sumar una hora en horari d'hivern i dues en horari d'estiu per passar a l'hora oficial.

Os de Balaguer - el Monestir d'Avellanes

Metadades estació meteorol´gica
Municipi Os de Balaguer
Comarca Noguera
Altitud 576 m
Data alta 07.07.1995
Estat actual Operativa
Dades de període
Període
TU
TM
°C
TX
°C
TN
°C
HRM
%
PPT
mm
VVM (6 m)
km/h
DVM (6 m)
graus
VVX (6 m)
km/h
RS
W/m2
00:00 - 00:30 1.4 1.5 1.2 96 2.0 6.8 292 19.8 0
00:30 - 01:00 1.1 1.2 1.0 96 3.7 7.6 311 22.3 0
01:00 - 01:30 1.0 1.1 1.0 96 4.0 5.4 327 16.9 0
01:30 - 02:00 0.8 1.0 0.5 96 1.4 1.1 205 8.6 0
02:00 - 02:30 0.3 0.5 0.2 96 0.0 2.2 250 7.2 0
02:30 - 03:00 0.3 0.5 0.2 96 0.0 4.0 276 13.7 0
03:00 - 03:30 0.5 0.6 0.4 96 0.2 4.7 319 15.1 0
03:30 - 04:00 0.5 0.6 0.5 96 1.1 4.0 325 11.9 0
04:00 - 04:30 0.4 0.5 0.4 96 0.2 0.0 218 3.2 0
04:30 - 05:00 0.3 0.4 0.3 96 0.1 0.0 173 0.0 0
05:00 - 05:30 0.4 0.4 0.3 96 0.1 0.0 280 0.0 0
05:30 - 06:00 0.4 0.4 0.3 96 0.1 2.2 263 10.4 0
06:00 - 06:30 0.2 0.3 0.2 96 0.1 3.2 238 15.8 1
06:30 - 07:00 0.2 0.3 0.1 96 0.1 1.4 121 6.8 3
07:00 - 07:30 0.1 0.1 0.0 96 0.2 1.1 105 7.6 5
07:30 - 08:00 0.2 0.3 0.1 96 0.3 0.0 119 0.0 6
08:00 - 08:30 0.3 0.5 0.3 96 0.2 0.0 116 0.0 7
08:30 - 09:00 0.6 0.7 0.5 96 0.3 0.0 177 0.4 10
09:00 - 09:30 0.7 0.9 0.7 97 0.4 0.0 198 0.7 11
09:30 - 10:00 0.9 1.1 0.8 96 0.6 0.0 106 0.0 14
10:00 - 10:30 0.9 1.0 0.8 96 0.7 0.0 87 0.0 14
10:30 - 11:00 0.8 0.9 0.6 96 0.8 3.2 73 11.9 16
11:00 - 11:30 0.7 0.8 0.6 96 0.8 7.9 70 16.2 20
11:30 - 12:00 0.8 1.0 0.8 96 1.0 7.9 63 18.0 26
12:00 - 12:30 1.4 1.7 1.0 96 1.4 4.7 82 10.8 34
12:30 - 13:00 2.1 2.3 1.6 97 1.5 3.6 329 9.7 33
13:00 - 13:30 2.4 2.7 2.2 96 1.5 5.4 33 12.6 43
13:30 - 14:00 3.1 3.5 2.7 96 1.7 4.7 32 13.0 64
14:00 - 14:30 3.3 3.9 2.9 95 1.6 4.7 33 14.0 72
14:30 - 15:00 3.6 3.9 3.2 94 1.5 6.1 45 15.5 66
15:00 - 15:30 3.5 3.7 3.3 93 1.3 9.4 48 16.6 109
15:30 - 16:00 4.1 4.4 3.7 89 1.4 9.7 52 18.0 216
16:00 - 16:30 4.7 5.0 4.3 87 1.4 7.9 62 18.4 233
16:30 - 17:00 4.1 4.4 3.7 87 0.9 7.9 46 15.8 105
17:00 - 17:30 3.6 3.8 3.3 87 0.7 9.0 48 14.8 72
17:30 - 18:00 3.0 3.3 2.8 89 0.4 8.3 41 13.0 12
18:00 - 18:30 2.8 2.9 2.7 89 0.4 10.1 51 17.6 1
18:30 - 19:00 2.8 2.9 2.7 89 0.4 9.7 61 17.3 0
19:00 - 19:30 2.9 3.0 2.8 89 0.4 9.4 55 16.9 0
19:30 - 20:00 2.9 3.0 2.8 89 0.3 10.8 59 18.7 0
20:00 - 20:30 3.0 3.0 2.8 89 0.3 9.7 56 15.8 0
20:30 - 21:00 2.8 2.9 2.7 90 0.2 8.6 55 14.4 0
21:00 - 21:30 2.6 2.7 2.5 90 0.2 10.1 56 16.2 0
21:30 - 22:00 2.6 2.7 2.5 90 0.1 10.8 60 18.0 0
22:00 - 22:30 2.4 2.7 2.1 90 0.1 8.3 56 14.4 0
22:30 - 23:00 2.0 2.3 1.8 91 0.0 7.2 54 14.0 0
23:00 - 23:30 (s/d) (s/d) (s/d) (s/d) (s/d) (s/d) (s/d) (s/d) (s/d)

Les dades en taronja només han passat un control de qualitat automàtic. Resta pendent la seva validació definitiva.